createdAt,value
2024-02-19T00:00:06.322Z,78.68
2024-02-19T00:03:03.424Z,78.30
2024-02-19T00:05:31.320Z,78.02
2024-02-19T00:07:59.465Z,78.13
2024-02-19T00:10:27.082Z,79.21
2024-02-19T00:12:54.739Z,79.58
2024-02-19T00:15:23.397Z,79.58
2024-02-19T00:17:51.511Z,79.59
2024-02-19T00:20:19.348Z,79.30
2024-02-19T00:22:47.524Z,78.84
2024-02-19T00:25:16.720Z,78.35
2024-02-19T00:27:46.289Z,78.21
2024-02-19T00:30:17.480Z,78.20
2024-02-19T00:32:45.708Z,78.18
2024-02-19T00:35:13.320Z,79.22
2024-02-19T00:37:40.873Z,79.93
2024-02-19T00:40:10.517Z,80.45
2024-02-19T00:42:38.761Z,80.80
2024-02-19T00:45:06.933Z,80.93
2024-02-19T00:47:34.696Z,81.82
2024-02-19T00:50:03.242Z,81.80
2024-02-19T00:52:31.174Z,81.89
2024-02-19T00:54:59.302Z,81.97
2024-02-19T00:57:26.781Z,81.31
2024-02-19T00:59:55.367Z,80.74
2024-02-19T01:02:23.900Z,80.62
2024-02-19T01:04:55.795Z,80.00
2024-02-19T01:07:25.575Z,79.59
2024-02-19T01:09:53.534Z,79.05
2024-02-19T01:12:21.739Z,78.81
2024-02-19T01:14:49.657Z,78.92
2024-02-19T01:17:18.672Z,79.21
2024-02-19T01:19:47.418Z,79.43
2024-02-19T01:22:15.972Z,79.52
2024-02-19T01:24:43.967Z,79.14
2024-02-19T01:27:12.661Z,78.39
2024-02-19T01:29:40.225Z,78.54
2024-02-19T01:32:07.999Z,78.38
2024-02-19T01:34:37.569Z,78.21
2024-02-19T01:37:05.433Z,78.43
2024-02-19T01:39:34.986Z,78.49
2024-02-19T01:42:04.171Z,78.28
2024-02-19T01:44:32.683Z,78.20
2024-02-19T01:47:00.979Z,77.92
2024-02-19T01:49:29.463Z,77.74
2024-02-19T01:51:57.542Z,77.94
2024-02-19T01:54:25.391Z,78.40
2024-02-19T01:56:53.703Z,78.73
2024-02-19T01:59:23.194Z,78.53
2024-02-19T02:01:51.217Z,78.02
2024-02-19T02:04:19.620Z,78.31
2024-02-19T02:06:48.567Z,78.77
2024-02-19T02:09:16.874Z,78.03
2024-02-19T02:11:44.200Z,78.04
2024-02-19T02:14:13.076Z,78.36
2024-02-19T02:16:40.701Z,78.73
2024-02-19T02:19:13.016Z,78.90
2024-02-19T02:21:42.166Z,78.23
2024-02-19T02:24:10.276Z,78.07
2024-02-19T02:26:42.476Z,78.36
2024-02-19T02:29:10.266Z,78.99
2024-02-19T02:31:39.392Z,79.45
2024-02-19T02:34:07.357Z,79.28
2024-02-19T02:36:36.318Z,79.47
2024-02-19T02:39:05.178Z,79.47
2024-02-19T02:41:33.310Z,79.15
2024-02-19T02:44:01.292Z,79.28
2024-02-19T02:46:29.687Z,79.31
2024-02-19T02:48:57.908Z,78.80
2024-02-19T02:51:26.540Z,79.01
2024-02-19T02:53:55.194Z,79.30
2024-02-19T02:56:24.787Z,79.33
2024-02-19T02:58:53.785Z,79.09
2024-02-19T03:01:27.076Z,78.61
2024-02-19T03:03:55.224Z,78.11
2024-02-19T03:06:23.173Z,77.77
2024-02-19T03:08:50.899Z,78.03
2024-02-19T03:11:18.760Z,78.41
2024-02-19T03:13:45.649Z,78.59
2024-02-19T03:16:18.247Z,78.17
2024-02-19T03:18:49.362Z,78.00
2024-02-19T03:21:18.554Z,77.81
2024-02-19T03:24:11.580Z,77.76
2024-02-19T03:26:41.646Z,77.94
2024-02-19T03:29:12.401Z,78.24
2024-02-19T03:31:41.979Z,78.38
2024-02-19T03:34:10.121Z,78.23
2024-02-19T03:36:37.523Z,78.42
2024-02-19T03:39:05.082Z,78.57
2024-02-19T03:41:34.439Z,78.54
2024-02-19T03:44:02.792Z,78.55
2024-02-19T03:46:30.950Z,78.68
2024-02-19T03:48:59.239Z,78.99
2024-02-19T03:51:28.720Z,79.32
2024-02-19T03:53:56.649Z,80.03
2024-02-19T03:56:25.362Z,80.36
2024-02-19T03:58:53.908Z,80.53
2024-02-19T04:01:21.981Z,80.47
2024-02-19T04:03:50.144Z,80.24
2024-02-19T04:06:17.633Z,79.88
2024-02-19T04:08:45.047Z,79.35
2024-02-19T04:11:17.085Z,79.78
2024-02-19T04:13:45.461Z,80.06
2024-02-19T04:16:14.211Z,79.42
2024-02-19T04:18:42.099Z,79.48
2024-02-19T04:21:09.609Z,79.38
2024-02-19T04:23:38.842Z,79.01
2024-02-19T04:26:06.859Z,78.50
2024-02-19T04:28:34.810Z,78.22
2024-02-19T04:31:03.053Z,78.79
2024-02-19T04:33:31.951Z,79.16
2024-02-19T04:36:00.145Z,79.21
2024-02-19T04:38:28.022Z,79.20
2024-02-19T04:40:56.833Z,79.10
2024-02-19T04:43:24.652Z,78.53
2024-02-19T04:45:54.879Z,78.32
2024-02-19T04:48:22.961Z,78.33
2024-02-19T04:50:50.636Z,78.73
2024-02-19T04:53:20.116Z,79.07
2024-02-19T04:55:49.666Z,78.67
2024-02-19T04:58:17.818Z,78.65
2024-02-19T05:00:47.177Z,78.60
2024-02-19T05:03:17.916Z,78.62
2024-02-19T05:05:45.778Z,78.30
2024-02-19T05:08:13.381Z,78.36
2024-02-19T05:10:41.636Z,78.74
2024-02-19T05:13:09.582Z,78.51
2024-02-19T05:15:39.005Z,78.32
2024-02-19T05:18:07.016Z,77.98
2024-02-19T05:20:35.851Z,77.62
2024-02-19T05:23:05.924Z,77.86
2024-02-19T05:25:33.724Z,78.07
2024-02-19T05:28:03.596Z,78.26
2024-02-19T05:30:32.063Z,77.90
2024-02-19T05:32:59.256Z,78.03
2024-02-19T05:35:28.730Z,78.47
2024-02-19T05:37:58.317Z,79.25
2024-02-19T05:40:27.761Z,79.55
2024-02-19T05:42:55.770Z,79.62
2024-02-19T05:45:24.120Z,79.67
2024-02-19T05:47:52.429Z,79.45
2024-02-19T05:50:20.181Z,79.40
2024-02-19T05:52:48.497Z,79.47
2024-02-19T05:55:17.904Z,79.76
2024-02-19T05:57:46.060Z,79.98
2024-02-19T06:00:14.463Z,79.89
2024-02-19T06:02:43.579Z,79.86
2024-02-19T06:05:12.278Z,79.88
2024-02-19T06:07:42.297Z,79.53
2024-02-19T06:10:11.571Z,78.96
2024-02-19T06:12:40.165Z,78.95
2024-02-19T06:15:09.414Z,78.81
2024-02-19T06:17:37.192Z,78.84
2024-02-19T06:20:05.612Z,78.74
2024-02-19T06:22:33.581Z,78.69
2024-02-19T06:25:01.621Z,78.89
2024-02-19T06:27:29.910Z,78.70
2024-02-19T06:29:58.487Z,78.31
2024-02-19T06:32:26.614Z,77.77
2024-02-19T06:34:55.969Z,77.51
2024-02-19T06:37:24.822Z,77.36
2024-02-19T06:39:52.842Z,77.82
2024-02-19T06:42:21.993Z,77.72
2024-02-19T06:44:49.234Z,76.90
2024-02-19T06:47:17.082Z,76.21
2024-02-19T06:49:45.521Z,76.26
2024-02-19T06:52:23.405Z,75.87
2024-02-19T06:54:52.592Z,75.96
2024-02-19T06:57:23.995Z,75.80
2024-02-19T07:00:10.598Z,75.07
2024-02-19T07:02:40.815Z,75.53
2024-02-19T07:05:09.808Z,75.61
2024-02-19T07:07:39.476Z,75.39
2024-02-19T07:10:12.478Z,74.92
2024-02-19T07:13:05.139Z,74.58
2024-02-19T07:15:40.461Z,75.36
2024-02-19T07:18:18.714Z,75.65
2024-02-19T07:20:59.689Z,74.92
2024-02-19T07:23:35.158Z,74.61
2024-02-19T07:26:30.398Z,74.04
2024-02-19T07:29:02.243Z,74.06
2024-02-19T07:31:31.000Z,73.86
2024-02-19T07:34:01.447Z,74.73
2024-02-19T07:36:29.488Z,74.79
2024-02-19T07:38:58.072Z,74.71
2024-02-19T07:41:30.914Z,74.02
2024-02-19T07:43:58.921Z,73.47
2024-02-19T07:46:26.747Z,73.37
2024-02-19T07:48:54.870Z,74.26
2024-02-19T07:51:24.017Z,74.75
2024-02-19T07:53:53.332Z,73.62
2024-02-19T07:56:28.188Z,72.92
2024-02-19T07:58:58.050Z,72.89
2024-02-19T08:01:27.053Z,73.08
2024-02-19T08:03:56.114Z,72.62
2024-02-19T08:06:25.616Z,72.29
2024-02-19T08:08:54.073Z,71.44
2024-02-19T08:11:31.470Z,71.25
2024-02-19T08:13:58.848Z,71.67
2024-02-19T08:16:28.765Z,72.40
2024-02-19T08:18:56.406Z,71.84
2024-02-19T08:21:34.407Z,71.18
2024-02-19T08:24:11.550Z,69.98
2024-02-19T08:26:51.799Z,70.34
2024-02-19T08:29:23.085Z,69.76
2024-02-19T08:31:53.981Z,70.96
2024-02-19T08:34:55.900Z,71.64
2024-02-19T08:37:30.267Z,70.64
2024-02-19T08:40:41.038Z,69.31
2024-02-19T08:43:17.420Z,70.35
2024-02-19T08:45:51.142Z,69.47
2024-02-19T08:48:23.500Z,69.42
2024-02-19T08:50:59.824Z,68.99
2024-02-19T08:53:30.220Z,67.81
2024-02-19T08:55:59.542Z,67.67
2024-02-19T08:58:31.999Z,67.54
2024-02-19T09:01:02.078Z,66.85
2024-02-19T09:03:31.699Z,66.60
2024-02-19T09:06:17.493Z,66.21
2024-02-19T09:08:52.833Z,66.18
2024-02-19T09:11:21.589Z,67.28
2024-02-19T09:13:50.339Z,66.62
2024-02-19T09:16:18.548Z,65.93
2024-02-19T09:18:48.981Z,65.64
2024-02-19T09:21:16.411Z,64.41
2024-02-19T09:23:49.379Z,62.88
2024-02-19T09:26:22.184Z,63.04
2024-02-19T09:28:52.389Z,61.13
2024-02-19T09:31:25.763Z,61.92
2024-02-19T09:34:00.780Z,60.72
2024-02-19T09:36:38.005Z,59.82
2024-02-19T09:39:07.458Z,59.02
2024-02-19T09:41:50.496Z,60.40
2024-02-19T09:44:20.198Z,61.60
2024-02-19T09:46:59.198Z,61.44
2024-02-19T09:49:29.288Z,60.16
2024-02-19T09:52:00.609Z,61.33
2024-02-19T09:54:29.413Z,60.69
2024-02-19T09:57:06.080Z,60.24
2024-02-19T09:59:34.726Z,59.24
2024-02-19T10:02:02.441Z,58.65
2024-02-19T10:04:35.390Z,56.02
2024-02-19T10:07:09.169Z,57.75
2024-02-19T10:09:37.427Z,57.72
2024-02-19T10:12:10.038Z,57.66
2024-02-19T10:14:42.701Z,57.54
2024-02-19T10:17:13.068Z,57.26
2024-02-19T10:19:43.809Z,57.09
2024-02-19T10:22:13.176Z,54.44
2024-02-19T10:24:45.080Z,53.86
2024-02-19T10:27:12.675Z,54.67
2024-02-19T10:29:40.004Z,56.63
2024-02-19T10:32:07.874Z,54.89
2024-02-19T10:34:36.318Z,55.13
2024-02-19T10:37:06.113Z,55.15
2024-02-19T10:39:35.053Z,55.66
2024-02-19T10:42:04.911Z,56.26
2024-02-19T10:44:35.767Z,56.71
2024-02-19T10:47:04.807Z,56.64
2024-02-19T10:49:33.647Z,56.21
2024-02-19T10:52:01.642Z,53.82
2024-02-19T10:54:32.340Z,52.92
2024-02-19T10:57:09.975Z,52.83
2024-02-19T10:59:41.423Z,52.25
2024-02-19T11:02:24.190Z,51.56
2024-02-19T11:04:55.284Z,49.43
2024-02-19T11:07:34.076Z,50.63
2024-02-19T11:10:05.255Z,49.74
2024-02-19T11:12:35.139Z,49.59
2024-02-19T11:15:15.004Z,50.60
2024-02-19T11:17:47.510Z,52.16
2024-02-19T11:20:25.686Z,53.13
2024-02-19T11:22:59.659Z,53.06
2024-02-19T11:25:34.022Z,51.96
2024-02-19T11:28:06.026Z,51.61
2024-02-19T11:30:37.148Z,51.88
2024-02-19T11:33:13.523Z,50.99
2024-02-19T11:35:47.608Z,50.78
2024-02-19T11:38:33.707Z,49.97
2024-02-19T11:41:07.821Z,49.19
2024-02-19T11:43:39.644Z,48.88
2024-02-19T11:46:11.090Z,49.25
2024-02-19T11:48:42.602Z,51.12
2024-02-19T11:51:12.941Z,50.81
2024-02-19T11:53:44.286Z,50.75
2024-02-19T11:56:20.402Z,51.16
2024-02-19T11:58:55.891Z,50.93
2024-02-19T12:01:28.115Z,49.35
2024-02-19T12:03:58.477Z,48.93
2024-02-19T12:06:30.786Z,49.81
2024-02-19T12:09:05.359Z,50.10
2024-02-19T12:11:42.437Z,49.55
2024-02-19T12:14:18.183Z,49.55
2024-02-19T12:16:48.020Z,49.35
2024-02-19T12:19:18.737Z,47.42
2024-02-19T12:21:56.404Z,48.26
2024-02-19T12:24:28.033Z,49.47
2024-02-19T12:26:57.622Z,50.23
2024-02-19T12:29:27.744Z,50.89
2024-02-19T12:31:57.689Z,51.23
2024-02-19T12:34:29.335Z,51.36
2024-02-19T12:37:00.629Z,51.22
2024-02-19T12:39:32.650Z,50.60
2024-02-19T12:42:03.782Z,50.79
2024-02-19T12:44:37.687Z,50.75
2024-02-19T12:47:07.421Z,50.06
2024-02-19T12:49:40.668Z,48.73
2024-02-19T12:52:15.711Z,46.93
2024-02-19T12:54:48.976Z,46.53
2024-02-19T12:57:27.427Z,47.04
2024-02-19T13:00:09.394Z,47.19
2024-02-19T13:02:38.617Z,48.13
2024-02-19T13:05:15.631Z,47.87
2024-02-19T13:07:50.944Z,47.67
2024-02-19T13:10:25.028Z,46.68
2024-02-19T13:12:58.020Z,46.30
2024-02-19T13:15:31.137Z,46.84
2024-02-19T13:18:01.146Z,45.98
2024-02-19T13:20:37.842Z,46.99
2024-02-19T13:23:09.404Z,47.84
2024-02-19T13:25:41.604Z,48.75
2024-02-19T13:28:13.964Z,49.11
2024-02-19T13:30:44.215Z,49.53
2024-02-19T13:33:19.755Z,49.28
2024-02-19T13:35:52.831Z,49.36
2024-02-19T13:38:30.435Z,50.19
2024-02-19T13:41:03.977Z,50.44
2024-02-19T13:43:34.058Z,50.23
2024-02-19T13:46:08.245Z,50.45
2024-02-19T13:48:37.596Z,49.59
2024-02-19T13:51:06.860Z,49.32
2024-02-19T13:53:38.718Z,50.00
2024-02-19T13:56:08.773Z,50.27
2024-02-19T13:58:37.626Z,50.30
2024-02-19T14:01:06.790Z,49.41
2024-02-19T14:03:42.856Z,48.70
2024-02-19T14:06:16.636Z,48.33
2024-02-19T14:08:50.782Z,48.60
2024-02-19T14:11:27.801Z,49.33
2024-02-19T14:14:02.338Z,49.41
2024-02-19T14:16:41.762Z,49.79
2024-02-19T14:19:13.561Z,50.25
2024-02-19T14:21:44.981Z,50.25
2024-02-19T14:24:17.249Z,50.40
2024-02-19T14:26:47.043Z,50.81
2024-02-19T14:29:17.838Z,51.04
2024-02-19T14:31:53.124Z,50.94
2024-02-19T14:34:27.119Z,51.17
2024-02-19T14:37:02.584Z,50.91
2024-02-19T14:39:33.664Z,51.13
2024-02-19T14:42:10.771Z,51.26
2024-02-19T14:44:43.390Z,51.02
2024-02-19T14:47:43.496Z,50.34
2024-02-19T14:50:13.779Z,50.96
2024-02-19T14:52:52.474Z,51.28
2024-02-19T14:55:23.546Z,51.56
2024-02-19T14:57:56.529Z,52.04
2024-02-19T15:00:24.133Z,52.30
2024-02-19T15:02:56.050Z,52.13
2024-02-19T15:05:25.993Z,53.14
2024-02-19T15:07:55.801Z,53.04
2024-02-19T15:10:27.533Z,52.96
2024-02-19T15:12:56.342Z,54.30
2024-02-19T15:15:25.006Z,54.42
2024-02-19T15:17:53.009Z,55.09
2024-02-19T15:20:22.372Z,55.35
2024-02-19T15:22:50.798Z,55.59
2024-02-19T15:25:19.635Z,56.22
2024-02-19T15:27:48.452Z,56.06
2024-02-19T15:30:17.018Z,55.92
2024-02-19T15:32:44.874Z,55.91
2024-02-19T15:35:13.142Z,56.34
2024-02-19T15:37:41.171Z,55.72
2024-02-19T15:40:10.159Z,56.07
2024-02-19T15:42:38.034Z,56.38
2024-02-19T15:45:07.230Z,56.36
2024-02-19T15:47:35.135Z,56.06
2024-02-19T15:50:06.808Z,56.14
2024-02-19T15:52:35.949Z,56.52
2024-02-19T15:55:05.077Z,56.72
2024-02-19T15:57:32.759Z,57.01
2024-02-19T16:00:02.469Z,56.90
2024-02-19T16:02:34.293Z,57.31
2024-02-19T16:05:01.860Z,57.83
2024-02-19T16:07:30.520Z,57.96
2024-02-19T16:09:59.205Z,57.79
2024-02-19T16:12:28.336Z,57.94
2024-02-19T16:14:56.755Z,58.41
2024-02-19T16:17:24.788Z,58.50
2024-02-19T16:19:54.232Z,59.15
2024-02-19T16:22:23.174Z,59.36
2024-02-19T16:24:51.071Z,59.12
2024-02-19T16:27:18.968Z,60.09
2024-02-19T16:29:46.302Z,59.76
2024-02-19T16:32:17.839Z,60.96
2024-02-19T16:34:45.251Z,60.73
2024-02-19T16:37:13.632Z,61.41
2024-02-19T16:39:46.685Z,61.36
2024-02-19T16:42:14.065Z,61.41
2024-02-19T16:44:42.036Z,61.31
2024-02-19T16:47:10.056Z,60.70
2024-02-19T16:49:37.594Z,61.81
2024-02-19T16:52:05.101Z,62.72
2024-02-19T16:54:32.992Z,62.38
2024-02-19T16:57:01.705Z,62.63
2024-02-19T16:59:29.508Z,62.19
2024-02-19T17:01:57.696Z,62.49
2024-02-19T17:04:25.474Z,62.56
2024-02-19T17:06:55.287Z,62.04
2024-02-19T17:09:23.656Z,62.24
2024-02-19T17:11:51.329Z,61.58
2024-02-19T17:14:19.941Z,62.18
2024-02-19T17:16:52.036Z,62.82
2024-02-19T17:19:21.362Z,61.89
2024-02-19T17:21:50.427Z,62.11
2024-02-19T17:24:17.584Z,62.40
2024-02-19T17:26:46.228Z,61.34
2024-02-19T17:29:14.127Z,61.26
2024-02-19T17:31:43.269Z,61.53
2024-02-19T17:34:12.318Z,63.70
2024-02-19T17:36:42.484Z,64.30
2024-02-19T17:39:12.526Z,65.06
2024-02-19T17:41:41.295Z,64.80
2024-02-19T17:44:11.361Z,65.43
2024-02-19T17:46:38.464Z,65.11
2024-02-19T17:49:11.171Z,64.99
2024-02-19T17:51:38.356Z,65.03
2024-02-19T17:54:09.898Z,64.64
2024-02-19T17:56:40.834Z,64.19
2024-02-19T17:59:10.823Z,64.13
2024-02-19T18:01:39.661Z,63.63
2024-02-19T18:04:08.149Z,63.20
2024-02-19T18:06:37.233Z,63.76
2024-02-19T18:09:05.027Z,64.36
2024-02-19T18:11:34.035Z,64.70
2024-02-19T18:14:01.690Z,63.80
2024-02-19T18:16:30.719Z,64.77
2024-02-19T18:19:00.558Z,65.03
2024-02-19T18:21:29.194Z,65.59
2024-02-19T18:23:58.763Z,65.19
2024-02-19T18:26:28.358Z,65.84
2024-02-19T18:28:58.162Z,66.35
2024-02-19T18:31:29.280Z,66.82
2024-02-19T18:33:58.077Z,66.93
2024-02-19T18:36:27.106Z,67.21
2024-02-19T18:38:55.006Z,67.41
2024-02-19T18:41:24.792Z,67.38
2024-02-19T18:43:52.823Z,66.72
2024-02-19T18:46:22.494Z,67.29
2024-02-19T18:49:01.675Z,67.57
2024-02-19T18:51:29.580Z,66.29
2024-02-19T18:53:57.164Z,66.50
2024-02-19T18:56:26.772Z,67.68
2024-02-19T18:58:55.173Z,68.35
2024-02-19T19:01:22.968Z,68.48
2024-02-19T19:03:50.808Z,68.42
2024-02-19T19:06:18.486Z,68.75
2024-02-19T19:08:46.696Z,68.19
2024-02-19T19:11:14.785Z,68.28
2024-02-19T19:13:44.573Z,68.43
2024-02-19T19:16:12.918Z,68.59
2024-02-19T19:18:41.133Z,67.86
2024-02-19T19:21:09.409Z,67.80
2024-02-19T19:23:37.675Z,67.72
2024-02-19T19:26:06.188Z,67.60
2024-02-19T19:28:33.936Z,67.61
2024-02-19T19:31:02.625Z,67.82
2024-02-19T19:33:31.055Z,67.85
2024-02-19T19:35:59.428Z,67.88
2024-02-19T19:38:26.878Z,68.86
2024-02-19T19:40:57.846Z,68.93
2024-02-19T19:43:26.984Z,68.38
2024-02-19T19:45:57.210Z,68.96
2024-02-19T19:48:28.978Z,69.48
2024-02-19T19:50:57.691Z,68.15
2024-02-19T19:53:27.064Z,68.14
2024-02-19T19:55:56.276Z,69.19
2024-02-19T19:58:31.868Z,68.98
2024-02-19T20:01:00.659Z,67.73
2024-02-19T20:03:29.296Z,67.23
2024-02-19T20:05:59.407Z,68.02
2024-02-19T20:08:27.361Z,67.22
2024-02-19T20:10:56.318Z,66.75
2024-02-19T20:13:24.151Z,67.93
2024-02-19T20:15:53.768Z,67.17
2024-02-19T20:18:29.062Z,68.46
2024-02-19T20:20:57.230Z,68.47
2024-02-19T20:23:26.986Z,68.53
2024-02-19T20:25:57.682Z,68.95
2024-02-19T20:28:25.258Z,68.67
2024-02-19T20:30:54.613Z,68.45
2024-02-19T20:33:22.900Z,67.93
2024-02-19T20:35:50.376Z,69.32
2024-02-19T20:38:18.261Z,69.00
2024-02-19T20:40:45.810Z,68.42
2024-02-19T20:43:13.457Z,69.83
2024-02-19T20:45:42.116Z,68.35
2024-02-19T20:48:10.905Z,69.52
2024-02-19T20:50:39.564Z,69.45
2024-02-19T20:53:10.158Z,69.20
2024-02-19T20:55:38.072Z,69.25
2024-02-19T20:58:07.483Z,68.90
2024-02-19T21:00:36.148Z,68.40
2024-02-19T21:03:04.013Z,68.77
2024-02-19T21:05:32.873Z,68.75
2024-02-19T21:08:00.851Z,68.50
2024-02-19T21:10:28.899Z,69.64
2024-02-19T21:12:59.739Z,69.79
2024-02-19T21:15:28.105Z,71.22
2024-02-19T21:17:56.011Z,70.42
2024-02-19T21:20:24.063Z,70.43
2024-02-19T21:22:52.289Z,70.52
2024-02-19T21:25:20.325Z,70.57
2024-02-19T21:27:49.318Z,70.27
2024-02-19T21:30:16.542Z,69.93
2024-02-19T21:32:46.764Z,70.58
2024-02-19T21:35:18.326Z,70.41
2024-02-19T21:37:48.387Z,69.41
2024-02-19T21:40:17.894Z,71.26
2024-02-19T21:42:45.182Z,71.03
2024-02-19T21:45:14.564Z,70.81
2024-02-19T21:47:42.789Z,70.99
2024-02-19T21:50:11.505Z,70.42
2024-02-19T21:52:40.794Z,71.34
2024-02-19T21:55:09.399Z,71.06
2024-02-19T21:57:38.014Z,70.97
2024-02-19T22:00:09.052Z,71.13
2024-02-19T22:02:36.608Z,70.65
2024-02-19T22:05:05.736Z,72.83
2024-02-19T22:07:34.725Z,71.76
2024-02-19T22:10:03.439Z,71.61
2024-02-19T22:12:32.963Z,72.28
2024-02-19T22:15:01.966Z,72.01
2024-02-19T22:17:30.377Z,71.45
2024-02-19T22:19:58.658Z,71.60
2024-02-19T22:22:27.696Z,71.05
2024-02-19T22:24:55.986Z,70.74
2024-02-19T22:27:23.877Z,70.11
2024-02-19T22:29:51.764Z,69.78
2024-02-19T22:32:20.359Z,69.89
2024-02-19T22:34:47.991Z,70.02
2024-02-19T22:37:16.822Z,70.04
2024-02-19T22:39:45.209Z,70.55
2024-02-19T22:42:14.329Z,71.49
2024-02-19T22:44:43.785Z,72.89
2024-02-19T22:47:11.865Z,72.17
2024-02-19T22:49:40.356Z,72.13
2024-02-19T22:52:10.026Z,72.54
2024-02-19T22:54:44.141Z,72.87
2024-02-19T22:57:12.303Z,72.66
2024-02-19T22:59:50.933Z,73.19
2024-02-19T23:02:19.297Z,72.93
2024-02-19T23:04:48.554Z,73.46
2024-02-19T23:07:18.023Z,73.73
2024-02-19T23:09:48.537Z,73.65
2024-02-19T23:12:16.897Z,73.06
2024-02-19T23:14:44.861Z,72.40
2024-02-19T23:17:12.833Z,71.76
2024-02-19T23:19:40.414Z,71.16
2024-02-19T23:22:08.350Z,70.69
2024-02-19T23:24:36.486Z,71.86
2024-02-19T23:27:05.192Z,73.24
2024-02-19T23:29:34.024Z,73.50
2024-02-19T23:32:01.429Z,73.07
2024-02-19T23:34:30.921Z,72.51
2024-02-19T23:37:01.213Z,72.54
2024-02-19T23:39:28.911Z,71.61
2024-02-19T23:41:57.710Z,72.11
2024-02-19T23:44:27.073Z,72.73
2024-02-19T23:46:54.664Z,72.10
2024-02-19T23:49:23.163Z,72.75
2024-02-19T23:51:51.865Z,73.86
2024-02-19T23:54:21.326Z,73.44
2024-02-19T23:56:48.909Z,73.07
2024-02-19T23:59:16.321Z,73.26
